Terminal Aerodrome Forecast
Issued by NWS

Home | Current Version | Previous Version | Text Only | Print | Product List | Glossary On
Versions: 1 2 3 4 5 6 7 8 9 10 11 12 13 14 15 16 17 18 19 20 21 22 23 24 25 26 27 28 29 30 31 32 33 34 35 36
000
FTUS45 KGJT 020533
TAFDRO
TAF
KDRO 020533Z 0206/0306 02004KT P6SM SCT070 SCT100
     FM020800 30008KT P6SM SCT090
     FM020900 26008KT P6SM SKC
     FM021300 VRB03KT P6SM SKC
     FM021800 24010KT P6SM FEW090
     FM030200 35005KT P6SM SKC=

USA.gov is the U.S. government's official web portal to all federal, state and local government web resources and services.